Time;durP1;ratioP1;P1;durP2;ratioP2;P2;SDS_P1;SDS_P2;PMS_P1;PMS_P2;Temp;Humidity;BMP_temperature;BMP_pressure;BME280_temperature;BME280_humidity;BME280_pressure;Samples;Min_cycle;Max_cycle;Signal;HPM_P1;HPM_P2
2023/03/27 00:00:58;;;;;;;;;;;;;;;;;;4984804;28;19914;-86
2023/03/27 00:03:48;;;;;;;;;;;;;;;;;;5001455;28;19921;-88
2023/03/27 00:06:36;;;;;;;;;;;;;;;;;;4996501;28;20032;-88
2023/03/27 00:09:22;;;;;;;;;;;;;;;;;;4989557;28;19918;-87
2023/03/27 00:12:09;;;;;;;;;;;;;;;;;;5001139;28;19929;-87
2023/03/27 00:14:55;;;;;;;;;;;;;;;;;;4990104;28;19929;-87
2023/03/27 00:17:43;;;;;;;;;;;;;;;;;;5005594;28;19920;-87
2023/03/27 00:20:29;;;;;;;;;;;;;;;;;;4997908;28;19921;-87
2023/03/27 00:23:16;;;;;;;;;;;;;;;;;;5003974;28;19920;-88
2023/03/27 00:26:03;;;;;;;;;;;;;;;;;;4997996;28;19917;-87
2023/03/27 00:28:49;;;;;;;;;;;;;;;;;;4998731;28;19917;-88
2023/03/27 00:31:36;;;;;;;;;;;;;;;;;;5006979;28;20444;-87
2023/03/27 00:34:22;;;;;;;;;;;;;;;;;;5004918;28;19922;-87
2023/03/27 00:37:09;;;;;;;;;;;;;;;;;;5001728;28;20474;-87
2023/03/27 00:39:55;;;;;;;;;;;;;;;;;;4996303;28;19917;-86
2023/03/27 00:42:42;;;;;;;;;;;;;;;;;;5003039;28;20376;-87
2023/03/27 00:45:29;;;;;;;;;;;;;;;;;;5001560;28;19925;-86
2023/03/27 00:48:15;;;;;;;;;;;;;;;;;;5005118;28;19921;-86
2023/03/27 00:51:02;;;;;;;;;;;;;;;;;;4998658;28;20297;-87
2023/03/27 00:53:48;;;;;;;;;;;;;;;;;;4998525;28;19924;-87
2023/03/27 00:56:37;;;;;;;;;;;;;;;;;;4970382;28;20412;-87
2023/03/27 00:59:23;;;;;;;;;;;;;;;;;;5003873;28;19924;-87
2023/03/27 01:02:10;;;;;;;;;;;;;;;;;;4993518;28;19914;-87
2023/03/27 01:04:56;;;;;;;;;;;;;;;;;;5003591;28;19917;-87
2023/03/27 01:07:43;;;;;;;;;;;;;;;;;;4998262;28;19947;-87
2023/03/27 01:10:29;;;;;;;;;;;;;;;;;;5001812;28;19962;-86
2023/03/27 01:13:16;;;;;;;;;;;;;;;;;;5004137;28;19920;-87
2023/03/27 01:16:02;;;;;;;;;;;;;;;;;;4993128;28;19929;-87
2023/03/27 01:18:49;;;;;;;;;;;;;;;;;;5004327;28;19917;-86
2023/03/27 01:21:36;;;;;;;;;;;;;;;;;;4999900;28;19918;-86
2023/03/27 01:24:22;;;;;;;;;;;;;;;;;;4996459;28;19924;-86
2023/03/27 01:27:09;;;;;;;;;;;;;;;;;;4991593;28;19922;-86
2023/03/27 01:29:56;;;;;;;;;;;;;;;;;;4991908;28;19917;-87
2023/03/27 01:32:43;;;;;;;;;;;;;;;;;;5003457;28;20319;-89
2023/03/27 01:35:29;;;;;;;;;;;;;;;;;;5004264;28;19925;-89
2023/03/27 01:38:16;;;;;;;;;;;;;;;;;;4995078;28;19944;-88
2023/03/27 01:41:02;;;;;;;;;;;;;;;;;;4992063;28;19918;-88
2023/03/27 01:43:49;;;;;;;;;;;;;;;;;;5002816;28;19922;-82
2023/03/27 01:46:35;;;;;;;;;;;;;;;;;;4992313;28;19914;-89
2023/03/27 01:49:22;;;;;;;;;;;;;;;;;;4994468;28;19922;-89
2023/03/27 01:52:08;;;;;;;;;;;;;;;;;;4998214;28;21317;-90
2023/03/27 01:54:57;;;;;;;;;;;;;;;;;;4996213;28;19917;-89
2023/03/27 01:57:45;;;;;;;;;;;;;;;;;;4980498;28;20036;-89
2023/03/27 02:00:31;;;;;;;;;;;;;;;;;;5000756;28;19918;-89
2023/03/27 02:03:18;;;;;;;;;;;;;;;;;;4997390;28;19937;-88
2023/03/27 02:06:04;;;;;;;;;;;;;;;;;;4986451;28;19917;-88
2023/03/27 02:08:51;;;;;;;;;;;;;;;;;;4996298;28;19973;-89
2023/03/27 02:11:38;;;;;;;;;;;;;;;;;;4999296;28;19925;-88
2023/03/27 02:14:24;;;;;;;;;;;;;;;;;;5003309;28;20584;-88
2023/03/27 02:17:12;;;;;;;;;;;;;;;;;;4991372;28;19917;-87
2023/03/27 02:19:59;;;;;;;;;;;;;;;;;;5003449;28;19928;-87
2023/03/27 02:22:47;;;;;;;;;;;;;;;;;;4996748;28;19993;-87
2023/03/27 02:25:34;;;;;;;;;;;;;;;;;;4991494;28;19933;-87
2023/03/27 02:28:22;;;;;;;;;;;;;;;;;;5004237;28;19921;-87
2023/03/27 02:31:08;;;;;;;;;;;;;;;;;;5001022;28;19935;-86
2023/03/27 02:33:55;;;;;;;;;;;;;;;;;;5004756;28;19917;-88
2023/03/27 02:36:42;;;;;;;;;;;;;;;;;;4997182;28;19965;-88
2023/03/27 02:39:28;;;;;;;;;;;;;;;;;;4990697;28;20036;-88
2023/03/27 02:42:15;;;;;;;;;;;;;;;;;;4991426;28;19918;-86
2023/03/27 02:45:01;;;;;;;;;;;;;;;;;;4981448;28;19918;-87
2023/03/27 02:47:48;;;;;;;;;;;;;;;;;;5001172;28;19925;-87
2023/03/27 02:50:34;;;;;;;;;;;;;;;;;;4996335;28;20028;-86
2023/03/27 02:53:21;;;;;;;;;;;;;;;;;;5005412;28;20281;-86
2023/03/27 02:56:07;;;;;;;;;;;;;;;;;;4991682;28;19918;-86
2023/03/27 02:58:56;;;;;;;;;;;;;;;;;;5002606;28;19929;-85
2023/03/27 03:01:44;;;;;;;;;;;;;;;;;;5003630;28;19928;-87
2023/03/27 03:04:30;;;;;;;;;;;;;;;;;;4999853;28;20404;-86
2023/03/27 03:07:17;;;;;;;;;;;;;;;;;;4993351;28;19920;-87
2023/03/27 03:10:04;;;;;;;;;;;;;;;;;;5002008;28;19917;-87
2023/03/27 03:12:50;;;;;;;;;;;;;;;;;;5000772;28;19943;-87
2023/03/27 03:15:37;;;;;;;;;;;;;;;;;;4995474;28;20671;-86
2023/03/27 03:18:24;;;;;;;;;;;;;;;;;;5013541;28;19933;-86
2023/03/27 03:21:10;;;;;;;;;;;;;;;;;;5005667;28;19913;-85
2023/03/27 03:23:57;;;;;;;;;;;;;;;;;;4997144;28;20436;-86
2023/03/27 03:26:48;;;;;;;;;;;;;;;;;;4995048;28;19917;-85
2023/03/27 03:29:36;;;;;;;;;;;;;;;;;;5002827;28;19924;-85
2023/03/27 03:32:22;;;;;;;;;;;;;;;;;;4999479;28;19929;-87
2023/03/27 03:35:09;;;;;;;;;;;;;;;;;;5004628;28;20383;-90
2023/03/27 03:37:56;;;;;;;;;;;;;;;;;;5004702;28;20388;-90
2023/03/27 03:40:43;;;;;;;;;;;;;;;;;;5002563;28;19960;-89
2023/03/27 03:43:29;;;;;;;;;;;;;;;;;;5001630;28;19922;-87
2023/03/27 03:46:17;;;;;;;;;;;;;;;;;;4989987;28;20646;-88
2023/03/27 03:49:03;;;;;;;;;;;;;;;;;;4999129;28;19917;-89
2023/03/27 03:51:50;;;;;;;;;;;;;;;;;;5000361;28;19929;-87
2023/03/27 03:54:37;;;;;;;;;;;;;;;;;;5003837;28;19944;-85
2023/03/27 03:57:24;;;;;;;;;;;;;;;;;;5002963;28;19918;-85
2023/03/27 04:00:11;;;;;;;;;;;;;;;;;;4992348;28;19923;-87
2023/03/27 04:02:57;;;;;;;;;;;;;;;;;;5004202;28;19936;-87
2023/03/27 04:05:44;;;;;;;;;;;;;;;;;;4996982;28;19928;-87
2023/03/27 04:08:30;;;;;;;;;;;;;;;;;;5006247;28;19928;-88
2023/03/27 04:11:17;;;;;;;;;;;;;;;;;;5005140;28;19930;-89
2023/03/27 04:14:03;;;;;;;;;;;;;;;;;;4997809;28;19929;-87
2023/03/27 04:16:50;;;;;;;;;;;;;;;;;;5006086;28;19928;-89
2023/03/27 04:19:36;;;;;;;;;;;;;;;;;;5004655;28;20370;-90
2023/03/27 04:22:23;;;;;;;;;;;;;;;;;;5002105;28;19917;-89
2023/03/27 04:25:09;;;;;;;;;;;;;;;;;;5003201;28;19947;-89
2023/03/27 04:27:56;;;;;;;;;;;;;;;;;;5002284;28;19925;-88
2023/03/27 04:30:42;;;;;;;;;;;;;;;;;;4990814;28;20377;-91
2023/03/27 04:33:29;;;;;;;;;;;;;;;;;;4990704;28;19928;-90
2023/03/27 04:36:16;;;;;;;;;;;;;;;;;;4988375;28;19919;-90
2023/03/27 04:39:02;;;;;;;;;;;;;;;;;;4987209;28;19926;-89
2023/03/27 04:41:49;;;;;;;;;;;;;;;;;;4995751;28;20289;-88
2023/03/27 04:44:36;;;;;;;;;;;;;;;;;;4998231;28;19917;-89
2023/03/27 04:47:23;;;;;;;;;;;;;;;;;;4999228;28;19918;-87
2023/03/27 04:50:09;;;;;;;;;;;;;;;;;;4991939;28;19921;-87
2023/03/27 04:52:59;;;;;;;;;;;;;;;;;;4996774;28;19917;-87
2023/03/27 04:55:45;;;;;;;;;;;;;;;;;;5003352;28;19920;-88
2023/03/27 04:58:32;;;;;;;;;;;;;;;;;;5004574;28;19913;-89
2023/03/27 05:01:19;;;;;;;;;;;;;;;;;;5004252;28;19921;-88
2023/03/27 05:04:05;;;;;;;;;;;;;;;;;;4992032;28;19922;-89
2023/03/27 05:06:52;;;;;;;;;;;;;;;;;;5002791;28;19929;-88
2023/03/27 05:09:38;;;;;;;;;;;;;;;;;;4984231;28;19959;-90
2023/03/27 05:12:25;;;;;;;;;;;;;;;;;;5007176;28;19921;-89
2023/03/27 05:15:11;;;;;;;;;;;;;;;;;;4978768;28;19966;-89
2023/03/27 05:17:59;;;;;;;;;;;;;;;;;;4993082;28;20293;-89
2023/03/27 05:20:48;;;;;;;;;;;;;;;;;;4997880;28;19925;-89
2023/03/27 05:23:35;;;;;;;;;;;;;;;;;;5005794;28;19914;-89
2023/03/27 05:26:21;;;;;;;;;;;;;;;;;;5006914;28;19925;-91
2023/03/27 05:29:08;;;;;;;;;;;;;;;;;;5007252;28;19924;-93
2023/03/27 05:31:54;;;;;;;;;;;;;;;;;;5006322;28;19928;-91
2023/03/27 05:34:41;;;;;;;;;;;;;;;;;;5002415;28;19924;-88
2023/03/27 05:37:28;;;;;;;;;;;;;;;;;;5011012;28;19917;-89
2023/03/27 05:40:14;;;;;;;;;;;;;;;;;;5022746;28;20004;-95
2023/03/27 05:43:00;;;;;;;;;;;;;;;;;;5029241;28;19913;-95
2023/03/27 05:45:47;;;;;;;;;;;;;;;;;;5025131;28;19920;-95
2023/03/27 05:48:33;;;;;;;;;;;;;;;;;;5026250;28;19913;-96
2023/03/27 05:51:20;;;;;;;;;;;;;;;;;;5018221;28;19925;-92
2023/03/27 05:54:06;;;;;;;;;;;;;;;;;;5020302;28;19909;-96
2023/03/27 05:56:53;;;;;;;;;;;;;;;;;;5024607;28;19917;-93
2023/03/27 05:59:39;;;;;;;;;;;;;;;;;;5030596;28;19905;-95
2023/03/27 06:02:26;;;;;;;;;;;;;;;;;;5025056;28;19897;-96
2023/03/27 06:05:13;;;;;;;;;;;;;;;;;;5039234;28;19898;-94
2023/03/27 06:08:01;;;;;;;;;;;;;;;;;;5029966;28;19917;-95
2023/03/27 06:10:47;;;;;;;;;;;;;;;;;;5028318;28;19929;-95
2023/03/27 06:13:34;;;;;;;;;;;;;;;;;;5034837;28;19897;-94
2023/03/27 06:16:21;;;;;;;;;;;;;;;;;;5033804;28;19932;-96
2023/03/27 06:19:08;;;;;;;;;;;;;;;;;;5020282;28;19913;-96
2023/03/27 06:21:54;;;;;;;;;;;;;;;;;;5032965;28;19914;-91
2023/03/27 06:24:41;;;;;;;;;;;;;;;;;;5028801;28;19918;-94
2023/03/27 06:27:29;;;;;;;;;;;;;;;;;;5026681;28;19914;-96
2023/03/27 06:30:16;;;;;;;;;;;;;;;;;;5034137;28;19913;-96
2023/03/27 06:33:02;;;;;;;;;;;;;;;;;;5023190;28;19922;-96
2023/03/27 06:35:49;;;;;;;;;;;;;;;;;;5026293;28;20029;-83
2023/03/27 06:38:36;;;;;;;;;;;;;;;;;;5029821;28;20338;-96
2023/03/27 06:41:22;;;;;;;;;;;;;;;;;;5022217;28;19945;-94
2023/03/27 06:44:09;;;;;;;;;;;;;;;;;;5007038;28;19922;-96
2023/03/27 06:46:55;;;;;;;;;;;;;;;;;;5031218;28;19920;-95
2023/03/27 06:49:46;;;;;;;;;;;;;;;;;;5028110;28;19914;-94
2023/03/27 06:52:32;;;;;;;;;;;;;;;;;;5019688;28;19941;-96
2023/03/27 06:55:19;;;;;;;;;;;;;;;;;;5012158;28;19917;-96
2023/03/27 06:58:07;;;;;;;;;;;;;;;;;;5013739;28;20040;-93
2023/03/27 07:00:54;;;;;;;;;;;;;;;;;;5005694;28;19921;-92
2023/03/27 07:03:40;;;;;;;;;;;;;;;;;;5016605;28;19932;-91
2023/03/27 07:06:27;;;;;;;;;;;;;;;;;;5018749;28;19914;-92
2023/03/27 07:09:13;;;;;;;;;;;;;;;;;;5010546;28;19924;-92
2023/03/27 07:12:00;;;;;;;;;;;;;;;;;;4996886;28;19955;-92
2023/03/27 07:14:46;;;;;;;;;;;;;;;;;;5010770;28;19932;-93
2023/03/27 07:17:32;;;;;;;;;;;;;;;;;;5012030;28;20309;-92
2023/03/27 07:20:19;;;;;;;;;;;;;;;;;;4999795;28;19918;-92
2023/03/27 07:23:05;;;;;;;;;;;;;;;;;;5020893;28;19921;-93
2023/03/27 07:25:52;;;;;;;;;;;;;;;;;;5008096;28;19913;-92
2023/03/27 07:28:38;;;;;;;;;;;;;;;;;;5010488;28;19920;-92
2023/03/27 07:31:26;;;;;;;;;;;;;;;;;;5012844;28;20411;-92
2023/03/27 07:34:12;;;;;;;;;;;;;;;;;;5019272;28;20240;-93
2023/03/27 07:36:59;;;;;;;;;;;;;;;;;;5014782;28;19921;-95
2023/03/27 07:39:45;;;;;;;;;;;;;;;;;;5018032;28;19932;-94
2023/03/27 07:42:32;;;;;;;;;;;;;;;;;;5014004;28;19914;-94
2023/03/27 07:45:19;;;;;;;;;;;;;;;;;;5010875;28;19917;-93
2023/03/27 07:48:07;;;;;;;;;;;;;;;;;;5013705;28;19922;-95
2023/03/27 07:50:53;;;;;;;;;;;;;;;;;;5017384;28;19932;-93
2023/03/27 07:53:40;;;;;;;;;;;;;;;;;;5017680;28;20278;-92
2023/03/27 07:56:26;;;;;;;;;;;;;;;;;;4990764;28;19918;-95
2023/03/27 07:59:15;;;;;;;;;;;;;;;;;;5029287;28;19929;-94
2023/03/27 08:02:01;;;;;;;;;;;;;;;;;;5023425;28;19918;-95
2023/03/27 08:04:48;;;;;;;;;;;;;;;;;;5015269;28;19914;-95
2023/03/27 08:07:34;;;;;;;;;;;;;;;;;;5010989;28;19924;-94
2023/03/27 08:10:21;;;;;;;;;;;;;;;;;;5018424;28;20395;-94
2023/03/27 08:13:08;;;;;;;;;;;;;;;;;;5017590;28;19956;-93
2023/03/27 08:15:55;;;;;;;;;;;;;;;;;;5016541;28;19932;-95
2023/03/27 08:18:42;;;;;;;;;;;;;;;;;;5017534;28;19917;-94
2023/03/27 08:21:28;;;;;;;;;;;;;;;;;;5025068;28;19921;-93
2023/03/27 08:24:15;;;;;;;;;;;;;;;;;;5020066;28;20277;-93
2023/03/27 08:27:02;;;;;;;;;;;;;;;;;;5023223;28;19924;-94
2023/03/27 08:29:48;;;;;;;;;;;;;;;;;;5009010;28;20507;-94
2023/03/27 08:32:35;;;;;;;;;;;;;;;;;;5020342;28;19922;-92
2023/03/27 08:35:21;;;;;;;;;;;;;;;;;;5014072;28;19932;-94
2023/03/27 08:38:08;;;;;;;;;;;;;;;;;;5031449;28;19924;-93
2023/03/27 08:40:57;;;;;;;;;;;;;;;;;;5019496;28;19917;-92
2023/03/27 08:43:44;;;;;;;;;;;;;;;;;;5026246;28;19917;-93
2023/03/27 08:46:30;;;;;;;;;;;;;;;;;;5026508;28;19902;-94
2023/03/27 08:49:17;;;;;;;;;;;;;;;;;;5016661;28;19917;-94
2023/03/27 08:52:04;;;;;;;;;;;;;;;;;;5026289;28;19928;-93
2023/03/27 08:54:52;;;;;;;;;;;;;;;;;;5030572;28;19918;-89
2023/03/27 08:57:38;;;;;;;;;;;;;;;;;;5021984;28;19943;-94
2023/03/27 09:00:26;;;;;;;;;;;;;;;;;;5020270;28;19924;-93
2023/03/27 09:03:12;;;;;;;;;;;;;;;;;;5011274;28;19914;-91
2023/03/27 09:05:59;;;;;;;;;;;;;;;;;;4996291;28;19928;-93
2023/03/27 09:08:45;;;;;;;;;;;;;;;;;;5007427;28;19918;-91
2023/03/27 09:11:32;;;;;;;;;;;;;;;;;;5007361;28;19952;-92
2023/03/27 09:14:20;;;;;;;;;;;;;;;;;;5011917;28;19941;-93
2023/03/27 09:17:06;;;;;;;;;;;;;;;;;;5008272;28;19921;-92
2023/03/27 09:19:53;;;;;;;;;;;;;;;;;;5009459;28;19936;-91
2023/03/27 09:22:40;;;;;;;;;;;;;;;;;;5012332;28;19936;-93
2023/03/27 09:25:27;;;;;;;;;;;;;;;;;;5003011;28;20301;-91
2023/03/27 09:28:13;;;;;;;;;;;;;;;;;;5003808;28;19914;-91
2023/03/27 09:31:02;;;;;;;;;;;;;;;;;;5001158;28;19928;-91
2023/03/27 09:33:48;;;;;;;;;;;;;;;;;;5008021;28;20372;-91
2023/03/27 09:36:35;;;;;;;;;;;;;;;;;;5005265;28;19918;-92
2023/03/27 09:39:21;;;;;;;;;;;;;;;;;;5002858;28;19944;-90
2023/03/27 09:42:09;;;;;;;;;;;;;;;;;;5005973;28;20011;-90
2023/03/27 09:44:56;;;;;;;;;;;;;;;;;;5011760;28;19929;-92
2023/03/27 09:47:42;;;;;;;;;;;;;;;;;;5005959;28;19917;-91
2023/03/27 09:50:29;;;;;;;;;;;;;;;;;;5006704;28;20293;-91
2023/03/27 09:53:17;;;;;;;;;;;;;;;;;;5008762;28;19929;-91
2023/03/27 09:56:04;;;;;;;;;;;;;;;;;;4991875;28;19922;-91
2023/03/27 09:58:50;;;;;;;;;;;;;;;;;;5002462;28;19917;-91
2023/03/27 10:01:37;;;;;;;;;;;;;;;;;;4991024;28;20301;-91
2023/03/27 10:04:24;;;;;;;;;;;;;;;;;;4998405;28;19928;-87
2023/03/27 10:07:10;;;;;;;;;;;;;;;;;;5002250;28;19997;-87
2023/03/27 10:09:57;;;;;;;;;;;;;;;;;;4999849;28;20370;-87
2023/03/27 10:12:44;;;;;;;;;;;;;;;;;;4999720;28;19936;-87
2023/03/27 10:15:31;;;;;;;;;;;;;;;;;;4997035;28;19933;-87
2023/03/27 10:18:17;;;;;;;;;;;;;;;;;;5005144;28;19918;-87
2023/03/27 10:21:04;;;;;;;;;;;;;;;;;;4990289;28;20059;-87
2023/03/27 10:23:51;;;;;;;;;;;;;;;;;;5003152;28;19924;-87
2023/03/27 10:26:37;;;;;;;;;;;;;;;;;;4998101;28;20252;-90
2023/03/27 10:29:24;;;;;;;;;;;;;;;;;;5000741;28;20660;-91
2023/03/27 10:32:10;;;;;;;;;;;;;;;;;;5004417;28;19929;-89
2023/03/27 10:34:57;;;;;;;;;;;;;;;;;;5007317;28;19947;-88
2023/03/27 10:37:43;;;;;;;;;;;;;;;;;;5005817;28;20334;-89
2023/03/27 10:40:30;;;;;;;;;;;;;;;;;;5004670;28;19928;-87
2023/03/27 10:43:16;;;;;;;;;;;;;;;;;;5004577;28;20427;-88
2023/03/27 10:46:06;;;;;;;;;;;;;;;;;;5006827;28;19913;-91
2023/03/27 10:48:52;;;;;;;;;;;;;;;;;;5004946;28;19918;-90
2023/03/27 10:51:39;;;;;;;;;;;;;;;;;;5007801;28;19925;-90
2023/03/27 10:54:25;;;;;;;;;;;;;;;;;;5008665;28;19927;-90
2023/03/27 10:57:12;;;;;;;;;;;;;;;;;;4998756;28;20017;-88
2023/03/27 10:59:58;;;;;;;;;;;;;;;;;;4998616;28;20369;-87
2023/03/27 11:02:45;;;;;;;;;;;;;;;;;;5004142;28;19932;-86
2023/03/27 11:05:32;;;;;;;;;;;;;;;;;;5003341;28;19925;-85
2023/03/27 11:08:18;;;;;;;;;;;;;;;;;;5004251;28;20238;-86
2023/03/27 11:11:05;;;;;;;;;;;;;;;;;;4996590;28;19922;-86
2023/03/27 11:13:52;;;;;;;;;;;;;;;;;;5002681;28;20369;-86
2023/03/27 11:16:38;;;;;;;;;;;;;;;;;;5003692;28;19922;-86
2023/03/27 11:19:25;;;;;;;;;;;;;;;;;;5002983;28;19926;-88
2023/03/27 11:22:12;;;;;;;;;;;;;;;;;;4994608;28;19918;-86
2023/03/27 11:24:58;;;;;;;;;;;;;;;;;;5003715;28;19921;-88
2023/03/27 11:27:44;;;;;;;;;;;;;;;;;;5002501;28;20482;-88
2023/03/27 11:30:31;;;;;;;;;;;;;;;;;;4997124;28;19933;-89
2023/03/27 11:33:17;;;;;;;;;;;;;;;;;;5000763;28;19936;-89
2023/03/27 11:36:04;;;;;;;;;;;;;;;;;;4998535;28;19949;-89
2023/03/27 11:38:50;;;;;;;;;;;;;;;;;;4995613;28;19921;-87
2023/03/27 11:41:37;;;;;;;;;;;;;;;;;;4997307;28;20378;-88
2023/03/27 11:44:23;;;;;;;;;;;;;;;;;;5003214;28;19924;-87
2023/03/27 11:47:10;;;;;;;;;;;;;;;;;;4994816;28;20333;-88
2023/03/27 11:49:56;;;;;;;;;;;;;;;;;;4998741;28;19925;-87
2023/03/27 11:52:43;;;;;;;;;;;;;;;;;;4999202;28;19933;-86
2023/03/27 11:55:31;;;;;;;;;;;;;;;;;;4992637;28;20449;-88
2023/03/27 11:58:17;;;;;;;;;;;;;;;;;;5003308;28;19924;-86
2023/03/27 12:01:07;;;;;;;;;;;;;;;;;;5005939;28;19925;-88
2023/03/27 12:03:53;;;;;;;;;;;;;;;;;;5004057;28;19924;-88
2023/03/27 12:06:40;;;;;;;;;;;;;;;;;;4991904;28;20453;-89
2023/03/27 12:09:26;;;;;;;;;;;;;;;;;;5000049;28;19924;-88
2023/03/27 12:12:13;;;;;;;;;;;;;;;;;;4986961;28;19930;-87
2023/03/27 12:14:59;;;;;;;;;;;;;;;;;;4996463;28;19936;-87
2023/03/27 12:17:46;;;;;;;;;;;;;;;;;;5004973;28;19921;-87
2023/03/27 12:20:32;;;;;;;;;;;;;;;;;;5005929;28;19917;-87
2023/03/27 12:23:19;;;;;;;;;;;;;;;;;;5004414;28;19926;-88
2023/03/27 12:26:06;;;;;;;;;;;;;;;;;;5000966;28;19928;-87
2023/03/27 12:28:52;;;;;;;;;;;;;;;;;;5000660;28;19928;-87
2023/03/27 12:31:40;;;;;;;;;;;;;;;;;;5003827;28;20397;-87
2023/03/27 12:34:26;;;;;;;;;;;;;;;;;;4999856;28;19917;-88
2023/03/27 12:37:13;;;;;;;;;;;;;;;;;;4994284;28;19928;-87
2023/03/27 12:39:59;;;;;;;;;;;;;;;;;;5001303;28;19918;-92
2023/03/27 12:42:45;;;;;;;;;;;;;;;;;;5002259;28;19925;-82
2023/03/27 12:45:32;;;;;;;;;;;;;;;;;;4988892;28;19917;-82
2023/03/27 12:48:19;;;;;;;;;;;;;;;;;;4989608;28;19925;-82
2023/03/27 12:51:06;;;;;;;;;;;;;;;;;;4999239;28;19928;-81
2023/03/27 12:53:53;;;;;;;;;;;;;;;;;;5000037;28;19932;-81
2023/03/27 12:56:39;;;;;;;;;;;;;;;;;;5001202;28;19921;-82
2023/03/27 12:59:26;;;;;;;;;;;;;;;;;;4991695;28;20395;-82
2023/03/27 13:02:13;;;;;;;;;;;;;;;;;;5002027;28;19956;-80
2023/03/27 13:04:59;;;;;;;;;;;;;;;;;;5001957;28;20271;-81
2023/03/27 13:07:46;;;;;;;;;;;;;;;;;;5002145;28;19928;-80
2023/03/27 13:10:32;;;;;;;;;;;;;;;;;;4999406;28;19924;-80
2023/03/27 13:13:18;;;;;;;;;;;;;;;;;;4998653;28;19925;-81
2023/03/27 13:16:05;;;;;;;;;;;;;;;;;;5000516;28;20286;-82
2023/03/27 13:18:51;;;;;;;;;;;;;;;;;;4997211;28;19922;-81
2023/03/27 13:21:38;;;;;;;;;;;;;;;;;;4997279;28;19998;-81
2023/03/27 13:24:24;;;;;;;;;;;;;;;;;;5002482;28;19944;-82
2023/03/27 13:27:11;;;;;;;;;;;;;;;;;;4991757;28;19997;-81
2023/03/27 13:29:58;;;;;;;;;;;;;;;;;;5003503;28;19917;-81
2023/03/27 13:32:44;;;;;;;;;;;;;;;;;;4991056;28;19957;-81
2023/03/27 13:35:31;;;;;;;;;;;;;;;;;;4994088;28;19914;-81
2023/03/27 13:38:18;;;;;;;;;;;;;;;;;;5001308;28;19928;-81
2023/03/27 13:41:04;;;;;;;;;;;;;;;;;;4998343;28;19929;-81
2023/03/27 13:43:51;;;;;;;;;;;;;;;;;;4992571;28;20506;-80
2023/03/27 13:46:38;;;;;;;;;;;;;;;;;;5000036;28;20555;-81
2023/03/27 13:49:24;;;;;;;;;;;;;;;;;;4994293;28;19925;-81
2023/03/27 13:52:11;;;;;;;;;;;;;;;;;;4991241;28;19922;-81
2023/03/27 13:54:57;;;;;;;;;;;;;;;;;;5011746;28;20258;-81
2023/03/27 13:57:44;;;;;;;;;;;;;;;;;;5002190;28;19928;-82
2023/03/27 14:00:30;;;;;;;;;;;;;;;;;;5002410;28;19936;-81
2023/03/27 14:03:17;;;;;;;;;;;;;;;;;;4992348;28;19913;-82
2023/03/27 14:06:03;;;;;;;;;;;;;;;;;;4997166;28;19928;-81
2023/03/27 14:08:50;;;;;;;;;;;;;;;;;;5007940;28;20303;-80
2023/03/27 14:11:36;;;;;;;;;;;;;;;;;;5007267;28;19929;-81
2023/03/27 14:14:23;;;;;;;;;;;;;;;;;;4991196;28;19937;-82
2023/03/27 14:17:09;;;;;;;;;;;;;;;;;;5005447;28;20412;-81
2023/03/27 14:19:56;;;;;;;;;;;;;;;;;;5000909;28;19928;-81
2023/03/27 14:22:42;;;;;;;;;;;;;;;;;;5004609;28;19926;-82
2023/03/27 14:25:29;;;;;;;;;;;;;;;;;;4997582;28;20377;-80
2023/03/27 14:28:15;;;;;;;;;;;;;;;;;;5006759;28;20266;-81
2023/03/27 14:31:02;;;;;;;;;;;;;;;;;;5004531;28;19918;-82
2023/03/27 14:33:48;;;;;;;;;;;;;;;;;;4993406;28;19929;-82
2023/03/27 14:36:40;;;;;;;;;;;;;;;;;;5003380;28;19943;-81
2023/03/27 14:39:29;;;;;;;;;;;;;;;;;;5000120;28;19925;-82
2023/03/27 14:42:16;;;;;;;;;;;;;;;;;;5001612;28;19918;-82
2023/03/27 14:45:02;;;;;;;;;;;;;;;;;;5002735;28;19925;-81
2023/03/27 14:47:49;;;;;;;;;;;;;;;;;;5003414;28;19925;-82
2023/03/27 14:50:37;;;;;;;;;;;;;;;;;;4998447;28;19929;-82
2023/03/27 14:53:25;;;;;;;;;;;;;;;;;;5005317;28;19960;-82
2023/03/27 14:56:11;;;;;;;;;;;;;;;;;;5001835;28;20349;-82
2023/03/27 14:58:58;;;;;;;;;;;;;;;;;;5000773;28;20169;-81
2023/03/27 15:01:44;;;;;;;;;;;;;;;;;;4993612;28;20021;-80
2023/03/27 15:04:31;;;;;;;;;;;;;;;;;;5003791;28;19913;-82
2023/03/27 15:07:18;;;;;;;;;;;;;;;;;;5005335;28;20329;-82
2023/03/27 15:10:04;;;;;;;;;;;;;;;;;;4992384;28;19917;-81
2023/03/27 15:12:51;;;;;;;;;;;;;;;;;;4997551;28;19937;-82
2023/03/27 15:15:37;;;;;;;;;;;;;;;;;;5004416;28;19930;-81
2023/03/27 15:18:24;;;;;;;;;;;;;;;;;;5001794;28;20001;-81
2023/03/27 15:21:12;;;;;;;;;;;;;;;;;;5002943;28;19928;-81
2023/03/27 15:23:59;;;;;;;;;;;;;;;;;;5004052;28;19922;-81
2023/03/27 15:26:46;;;;;;;;;;;;;;;;;;5002249;28;19933;-81
2023/03/27 15:29:33;;;;;;;;;;;;;;;;;;5001113;28;20324;-81
2023/03/27 15:32:20;;;;;;;;;;;;;;;;;;5006040;28;19930;-81
2023/03/27 15:35:08;;;;;;;;;;;;;;;;;;4998944;28;19926;-82
2023/03/27 15:37:56;;;;;;;;;;;;;;;;;;4998689;28;19928;-81
2023/03/27 15:40:42;;;;;;;;;;;;;;;;;;5000842;28;19924;-82
2023/03/27 15:43:29;;;;;;;;;;;;;;;;;;5003346;28;19921;-82
2023/03/27 15:46:15;;;;;;;;;;;;;;;;;;5002619;28;19929;-80
2023/03/27 15:49:02;;;;;;;;;;;;;;;;;;4991680;28;19929;-80
2023/03/27 15:51:49;;;;;;;;;;;;;;;;;;4995173;28;19971;-80
2023/03/27 15:54:35;;;;;;;;;;;;;;;;;;5003116;28;20308;-82
2023/03/27 15:57:22;;;;;;;;;;;;;;;;;;5004142;28;19922;-79
2023/03/27 16:00:09;;;;;;;;;;;;;;;;;;4998392;28;19944;-81
2023/03/27 16:02:55;;;;;;;;;;;;;;;;;;4998126;28;19933;-81
2023/03/27 16:05:42;;;;;;;;;;;;;;;;;;5003127;28;19940;-81
2023/03/27 16:08:28;;;;;;;;;;;;;;;;;;5004190;28;19928;-79
2023/03/27 16:11:15;;;;;;;;;;;;;;;;;;4998918;28;19917;-80
2023/03/27 16:14:01;;;;;;;;;;;;;;;;;;4990027;28;19936;-80
2023/03/27 16:16:48;;;;;;;;;;;;;;;;;;5003967;28;20486;-80
2023/03/27 16:19:35;;;;;;;;;;;;;;;;;;5001904;28;19921;-80
2023/03/27 16:22:21;;;;;;;;;;;;;;;;;;5003162;28;19921;-81
2023/03/27 16:25:08;;;;;;;;;;;;;;;;;;4999782;28;19922;-82
2023/03/27 16:27:54;;;;;;;;;;;;;;;;;;4989162;28;19925;-79
2023/03/27 16:30:41;;;;;;;;;;;;;;;;;;4998126;28;19994;-80
2023/03/27 16:33:28;;;;;;;;;;;;;;;;;;5000231;28;19936;-79
2023/03/27 16:36:14;;;;;;;;;;;;;;;;;;5000721;28;19921;-80
2023/03/27 16:39:03;;;;;;;;;;;;;;;;;;5005264;28;19922;-79
2023/03/27 16:41:49;;;;;;;;;;;;;;;;;;4999908;28;19914;-80
2023/03/27 16:44:36;;;;;;;;;;;;;;;;;;4989402;28;19921;-80
2023/03/27 16:47:23;;;;;;;;;;;;;;;;;;4999575;28;19918;-80
2023/03/27 16:50:09;;;;;;;;;;;;;;;;;;4990867;28;19921;-80
2023/03/27 16:52:56;;;;;;;;;;;;;;;;;;5000501;28;19922;-80
2023/03/27 16:55:43;;;;;;;;;;;;;;;;;;4992339;28;19924;-83
2023/03/27 16:58:30;;;;;;;;;;;;;;;;;;4995871;28;19922;-80
2023/03/27 17:01:16;;;;;;;;;;;;;;;;;;4996709;28;19918;-80
2023/03/27 17:04:03;;;;;;;;;;;;;;;;;;4994503;28;19944;-80
2023/03/27 17:06:50;;;;;;;;;;;;;;;;;;4999825;28;19918;-78
2023/03/27 17:09:36;;;;;;;;;;;;;;;;;;5006242;28;19917;-81
2023/03/27 17:12:23;;;;;;;;;;;;;;;;;;5007401;28;19960;-81
2023/03/27 17:15:10;;;;;;;;;;;;;;;;;;5008347;28;19933;-80
2023/03/27 17:17:56;;;;;;;;;;;;;;;;;;5001910;28;19936;-81
2023/03/27 17:20:42;;;;;;;;;;;;;;;;;;4997471;28;19940;-80
2023/03/27 17:23:30;;;;;;;;;;;;;;;;;;4996816;28;19921;-80
2023/03/27 17:26:16;;;;;;;;;;;;;;;;;;4999211;28;19924;-81
2023/03/27 17:29:04;;;;;;;;;;;;;;;;;;5000184;28;19922;-80
2023/03/27 17:31:50;;;;;;;;;;;;;;;;;;4993509;28;19928;-79
2023/03/27 17:34:37;;;;;;;;;;;;;;;;;;5006243;28;19924;-80
2023/03/27 17:37:24;;;;;;;;;;;;;;;;;;4999233;28;19918;-80
2023/03/27 17:40:11;;;;;;;;;;;;;;;;;;5004293;28;19925;-80
2023/03/27 17:42:57;;;;;;;;;;;;;;;;;;5007873;28;19942;-79
2023/03/27 17:45:44;;;;;;;;;;;;;;;;;;5001533;28;19918;-80
2023/03/27 17:48:30;;;;;;;;;;;;;;;;;;4991877;28;19924;-79
2023/03/27 17:51:17;;;;;;;;;;;;;;;;;;5004970;28;19917;-80
2023/03/27 17:54:03;;;;;;;;;;;;;;;;;;4996146;28;20723;-80
2023/03/27 17:56:50;;;;;;;;;;;;;;;;;;4997327;28;19913;-79
2023/03/27 17:59:37;;;;;;;;;;;;;;;;;;4993201;28;19924;-82
2023/03/27 18:02:23;;;;;;;;;;;;;;;;;;4995386;28;19922;-81
2023/03/27 18:05:10;;;;;;;;;;;;;;;;;;4989347;28;19936;-80
2023/03/27 18:07:56;;;;;;;;;;;;;;;;;;4994598;28;20447;-80
2023/03/27 18:10:43;;;;;;;;;;;;;;;;;;4987419;28;19924;-80
2023/03/27 18:13:30;;;;;;;;;;;;;;;;;;4999223;28;19926;-79
2023/03/27 18:16:18;;;;;;;;;;;;;;;;;;5001858;28;19936;-82
2023/03/27 18:19:04;;;;;;;;;;;;;;;;;;4990305;28;19925;-82
2023/03/27 18:21:51;;;;;;;;;;;;;;;;;;4997418;28;19936;-82
2023/03/27 18:24:37;;;;;;;;;;;;;;;;;;4999942;28;19921;-81
2023/03/27 18:27:24;;;;;;;;;;;;;;;;;;4996550;28;19924;-83
2023/03/27 18:30:12;;;;;;;;;;;;;;;;;;4992987;28;19914;-81
2023/03/27 18:32:58;;;;;;;;;;;;;;;;;;4995931;28;20373;-84
2023/03/27 18:35:45;;;;;;;;;;;;;;;;;;4996644;28;19928;-82
2023/03/27 18:38:31;;;;;;;;;;;;;;;;;;5002017;28;19924;-83
2023/03/27 18:41:18;;;;;;;;;;;;;;;;;;4987536;28;20397;-81
2023/03/27 18:44:04;;;;;;;;;;;;;;;;;;4996497;28;19929;-83
2023/03/27 18:46:51;;;;;;;;;;;;;;;;;;4985273;28;20389;-84
2023/03/27 18:49:38;;;;;;;;;;;;;;;;;;5000344;28;19917;-83
2023/03/27 18:52:24;;;;;;;;;;;;;;;;;;4993058;28;19926;-83
2023/03/27 18:55:11;;;;;;;;;;;;;;;;;;4995308;28;19926;-85
2023/03/27 18:57:58;;;;;;;;;;;;;;;;;;4995719;28;19918;-82